Time;durP1;ratioP1;P1;durP2;ratioP2;P2;SDS_P1;SDS_P2;PMS_P1;PMS_P2;Temp;Humidity;BMP_temperature;BMP_pressure;BME280_temperature;BME280_humidity;BME280_pressure;Samples;Min_cycle;Max_cycle;Signal;HPM_P1;HPM_P2
2021/12/22 00:02:20;;;;;;;18.52;8.38;;;1.70;58.70;;;;;;4997179;28;20030;-55
2021/12/22 00:04:49;;;;;;;19.73;7.95;;;1.70;58.70;;;;;;5001738;28;20022;-55
2021/12/22 00:07:16;;;;;;;24.10;8.65;;;1.60;58.60;;;;;;5001582;28;20030;-54
2021/12/22 00:09:42;;;;;;;18.55;7.72;;;1.70;58.90;;;;;;4997227;28;20439;-56
2021/12/22 00:12:10;;;;;;;19.75;8.63;;;1.60;58.70;;;;;;5000251;28;20610;-54
2021/12/22 00:14:36;;;;;;;17.17;8.00;;;1.60;58.80;;;;;;5000334;28;20417;-53
2021/12/22 00:17:03;;;;;;;16.98;8.20;;;1.60;58.70;;;;;;4998013;28;20620;-53
2021/12/22 00:19:29;;;;;;;19.65;8.88;;;1.60;58.80;;;;;;4995638;28;20568;-54
2021/12/22 00:21:56;;;;;;;18.23;8.27;;;1.60;58.80;;;;;;4999915;28;20030;-53
2021/12/22 00:24:22;;;;;;;23.80;8.40;;;1.60;58.70;;;;;;4998725;28;20034;-57
2021/12/22 00:26:48;;;;;;;18.55;8.05;;;1.60;58.70;;;;;;4999611;28;20041;-56
2021/12/22 00:29:16;;;;;;;15.45;7.50;;;1.60;58.80;;;;;;4994816;28;20413;-55
2021/12/22 00:31:56;;;;;;;20.55;8.50;;;1.60;58.80;;;;;;4996888;28;20494;-55
2021/12/22 00:34:25;;;;;;;17.38;8.25;;;1.60;58.80;;;;;;5001256;28;20033;-53
2021/12/22 00:36:51;;;;;;;22.77;8.35;;;1.60;58.80;;;;;;5000353;28;20046;-54
2021/12/22 00:39:17;;;;;;;19.10;7.38;;;1.60;58.80;;;;;;4996071;28;20543;-55
2021/12/22 00:41:44;;;;;;;17.80;8.40;;;1.60;58.80;;;;;;4999353;28;20041;-53
2021/12/22 00:44:12;;;;;;;16.15;7.50;;;1.60;58.70;;;;;;5001293;28;20034;-55
2021/12/22 00:46:38;;;;;;;24.55;8.95;;;1.60;58.80;;;;;;4998507;28;20042;-54
2021/12/22 00:49:04;;;;;;;16.98;8.80;;;1.60;58.80;;;;;;4996306;28;20365;-55
2021/12/22 00:51:31;;;;;;;19.25;9.02;;;1.60;58.80;;;;;;5000061;28;20045;-55
2021/12/22 00:53:57;;;;;;;23.73;9.57;;;1.60;58.80;;;;;;5001393;28;20037;-56
2021/12/22 00:56:23;;;;;;;25.70;8.90;;;1.60;58.80;;;;;;5000340;28;20038;-54
2021/12/22 00:58:49;;;;;;;21.70;8.80;;;1.60;58.80;;;;;;4995308;28;20385;-54
2021/12/22 01:01:15;;;;;;;20.83;8.20;;;1.60;58.80;;;;;;4997490;28;20029;-54
2021/12/22 01:03:41;;;;;;;21.08;9.13;;;1.60;58.80;;;;;;5002838;28;20558;-55
2021/12/22 01:06:07;;;;;;;18.40;8.80;;;1.60;58.80;;;;;;5002839;28;20019;-55
2021/12/22 01:08:34;;;;;;;21.60;8.50;;;1.60;58.80;;;;;;5000495;28;20025;-55
2021/12/22 01:11:00;;;;;;;16.73;8.60;;;1.60;58.80;;;;;;5003813;28;20874;-56
2021/12/22 01:13:28;;;;;;;20.52;8.98;;;1.60;58.90;;;;;;5004109;28;20885;-55
2021/12/22 01:15:55;;;;;;;18.77;8.95;;;1.60;58.90;;;;;;5001584;28;20378;-55
2021/12/22 01:18:30;;;;;;;20.08;8.30;;;1.60;58.90;;;;;;5000684;28;20037;-53
2021/12/22 01:21:15;;;;;;;18.45;8.60;;;1.50;58.90;;;;;;5001924;28;20041;-53
2021/12/22 01:23:59;;;;;;;27.70;9.10;;;1.60;59.00;;;;;;5003165;28;20048;-55
2021/12/22 01:26:33;;;;;;;17.67;8.45;;;1.60;59.00;;;;;;5002338;28;20038;-55
2021/12/22 01:29:00;;;;;;;;;;;1.60;59.00;;;;;;5001482;28;20034;-55
2021/12/22 01:31:26;;;;;;;17.63;7.90;;;1.60;59.10;;;;;;5000153;28;20268;-55
2021/12/22 01:33:52;;;;;;;21.90;9.10;;;1.60;58.90;;;;;;5004733;28;20045;-55
2021/12/22 01:36:19;;;;;;;22.08;8.63;;;1.60;58.90;;;;;;5003439;28;20045;-54
2021/12/22 01:38:45;;;;;;;22.08;8.70;;;1.60;59.00;;;;;;4999919;28;20505;-54
2021/12/22 01:41:11;;;;;;;19.88;9.55;;;1.60;59.00;;;;;;5018156;28;20042;-55
2021/12/22 01:43:37;;;;;;;23.48;9.38;;;1.50;58.90;;;;;;5000745;28;20046;-55
2021/12/22 01:46:32;;;;;;;20.65;8.52;;;1.50;58.90;;;;;;5001762;28;20069;-55
2021/12/22 01:49:10;;;;;;;23.05;8.73;;;1.50;58.90;;;;;;4998775;28;20497;-55
2021/12/22 01:51:48;;;;;;;24.17;9.23;;;1.50;58.80;;;;;;5003584;28;20049;-57
2021/12/22 01:54:21;;;;;;;22.75;8.68;;;1.50;58.80;;;;;;5003633;28;20041;-56
2021/12/22 01:56:49;;;;;;;22.77;9.13;;;1.50;58.90;;;;;;5003140;28;20034;-56
2021/12/22 01:59:15;;;;;;;19.73;9.20;;;1.50;58.90;;;;;;4998622;28;20045;-55
2021/12/22 02:01:43;;;;;;;17.80;8.35;;;1.50;58.90;;;;;;5000465;28;20026;-58
2021/12/22 02:04:11;;;;;;;18.83;8.45;;;1.50;59.00;;;;;;5017377;28;20383;-56
2021/12/22 02:06:42;;;;;;;17.55;7.72;;;1.50;59.10;;;;;;5003193;28;20030;-57
2021/12/22 02:09:13;;;;;;;23.88;8.18;;;1.50;59.10;;;;;;4998852;28;20037;-56
2021/12/22 02:11:40;;;;;;;22.25;8.20;;;1.50;59.10;;;;;;5003242;28;20038;-55
2021/12/22 02:14:07;;;;;;;17.60;7.65;;;1.50;59.10;;;;;;5002799;28;20040;-56
2021/12/22 02:16:38;;;;;;;19.60;8.57;;;1.50;59.10;;;;;;4999703;28;20037;-56
2021/12/22 02:19:09;;;;;;;21.58;7.47;;;1.50;59.10;;;;;;4998953;28;20022;-56
2021/12/22 02:21:45;;;;;;;18.63;8.55;;;1.50;59.10;;;;;;5001344;28;20382;-55
2021/12/22 02:24:12;;;;;;;17.38;7.90;;;1.50;59.00;;;;;;5001388;28;20049;-56
2021/12/22 02:26:47;;;;;;;17.90;8.75;;;1.50;59.00;;;;;;5002410;28;20057;-58
2021/12/22 02:29:34;;;;;;;21.20;7.65;;;1.50;59.00;;;;;;4997372;28;20418;-57
2021/12/22 02:32:07;;;;;;;19.73;7.95;;;1.50;59.10;;;;;;4998981;28;20522;-56
2021/12/22 02:34:46;;;;;;;19.33;8.45;;;1.40;59.00;;;;;;5001315;28;20476;-56
2021/12/22 02:37:16;;;;;;;21.90;8.70;;;1.40;59.00;;;;;;4997451;28;20049;-57
2021/12/22 02:39:57;;;;;;;21.25;8.90;;;1.40;58.90;;;;;;5000175;28;20038;-55
2021/12/22 02:42:26;;;;;;;17.23;8.02;;;1.40;59.00;;;;;;4998402;28;20044;-57
2021/12/22 02:44:52;;;;;;;24.77;8.70;;;1.40;59.00;;;;;;5002827;28;20025;-56
2021/12/22 02:47:21;;;;;;;17.35;8.40;;;1.40;59.00;;;;;;4999473;28;20042;-55
2021/12/22 02:49:48;;;;;;;17.98;7.93;;;1.40;59.00;;;;;;4984637;28;20030;-55
2021/12/22 02:52:15;;;;;;;16.08;8.13;;;1.40;59.00;;;;;;5002047;28;20494;-58
2021/12/22 02:54:52;;;;;;;19.80;8.93;;;1.40;59.00;;;;;;5003186;28;20026;-55
2021/12/22 02:57:29;;;;;;;20.52;8.75;;;1.40;59.00;;;;;;5000765;28;20414;-58
2021/12/22 03:05:09;;;;;;;16.55;8.80;;;1.30;58.90;;;;;;5003375;28;20510;-57
2021/12/22 03:07:36;;;;;;;19.92;8.00;;;1.30;59.50;;;;;;5002637;28;20029;-55
2021/12/22 03:10:12;;;;;;;17.10;8.20;;;1.40;59.00;;;;;;4999009;28;20388;-56
2021/12/22 03:12:39;;;;;;;19.25;8.05;;;1.30;59.00;;;;;;5002335;28;20389;-56
2021/12/22 03:15:08;;;;;;;18.45;7.93;;;1.30;59.00;;;;;;5002090;28;20040;-57
2021/12/22 03:17:35;;;;;;;20.85;8.55;;;1.30;58.90;;;;;;4998902;28;20065;-56
2021/12/22 03:20:02;;;;;;;19.17;8.25;;;1.30;58.90;;;;;;4997038;28;20427;-57
2021/12/22 03:22:28;;;;;;;22.85;9.05;;;1.30;58.80;;;;;;4999944;28;20404;-56
2021/12/22 03:24:55;;;;;;;18.40;8.05;;;1.30;58.70;;;;;;5001876;28;20037;-58
2021/12/22 03:27:24;;;;;;;22.65;8.57;;;1.30;59.10;;;;;;5001026;28;20034;-54
2021/12/22 03:29:51;;;;;;;22.05;8.73;;;1.30;58.70;;;;;;4998126;28;20033;-54
2021/12/22 03:32:18;;;;;;;16.27;8.50;;;1.20;58.60;;;;;;4983577;28;20038;-55
2021/12/22 03:34:44;;;;;;;23.40;9.60;;;1.20;58.70;;;;;;5000478;28;20030;-55
2021/12/22 03:37:13;;;;;;;21.63;8.77;;;1.20;58.80;;;;;;5002016;28;20478;-55
2021/12/22 03:39:39;;;;;;;17.88;9.32;;;1.20;58.90;;;;;;4996413;28;20099;-55
2021/12/22 03:42:08;;;;;;;21.50;9.60;;;1.10;58.90;;;;;;4996752;28;20026;-55
2021/12/22 03:44:34;;;;;;;16.40;8.82;;;1.20;59.00;;;;;;4995249;28;20030;-57
2021/12/22 03:47:00;;;;;;;24.58;9.32;;;1.10;59.00;;;;;;4994982;28;20022;-54
2021/12/22 03:49:27;;;;;;;18.23;8.52;;;1.10;59.10;;;;;;4994519;28;20619;-56
2021/12/22 03:51:54;;;;;;;24.48;9.35;;;1.10;59.00;;;;;;5000166;28;20038;-54
2021/12/22 03:54:20;;;;;;;20.20;9.05;;;1.10;59.10;;;;;;5000466;28;20477;-55
2021/12/22 03:56:47;;;;;;;23.50;9.13;;;1.10;59.10;;;;;;4998657;28;20033;-53
2021/12/22 03:59:13;;;;;;;19.00;9.02;;;1.10;59.20;;;;;;4997884;28;20356;-56
2021/12/22 04:01:39;;;;;;;22.63;9.50;;;1.10;59.20;;;;;;4997237;28;20029;-56
2021/12/22 04:04:12;;;;;;;20.40;9.30;;;1.10;59.20;;;;;;5001204;28;20053;-56
2021/12/22 04:06:39;;;;;;;23.48;9.73;;;1.10;59.20;;;;;;5001392;28;20547;-54
2021/12/22 04:09:06;;;;;;;17.33;8.20;;;1.10;59.20;;;;;;4979740;28;20721;-54
2021/12/22 04:11:32;;;;;;;25.02;9.98;;;1.10;59.30;;;;;;5001627;28;20043;-54
2021/12/22 04:13:58;;;;;;;24.52;9.88;;;1.10;59.30;;;;;;4998144;28;20026;-54
2021/12/22 04:16:25;;;;;;;19.05;8.48;;;1.10;59.30;;;;;;4995964;28;20045;-54
2021/12/22 04:18:51;;;;;;;21.48;8.98;;;1.10;59.30;;;;;;4999623;28;20046;-55
2021/12/22 04:21:18;;;;;;;16.60;8.85;;;1.10;59.30;;;;;;4999130;28;20589;-55
2021/12/22 04:23:44;;;;;;;22.20;9.23;;;1.10;59.30;;;;;;4998464;28;20497;-56
2021/12/22 04:26:12;;;;;;;29.17;9.75;;;1.10;59.30;;;;;;5000581;28;20026;-56
2021/12/22 04:28:42;;;;;;;20.05;9.00;;;1.10;59.30;;;;;;4999614;28;20977;-55
2021/12/22 04:31:08;;;;;;;15.48;7.97;;;1.10;59.30;;;;;;4997902;28;20018;-55
2021/12/22 04:33:35;;;;;;;24.38;9.40;;;1.10;59.20;;;;;;4997744;28;20041;-55
2021/12/22 04:36:01;;;;;;;21.33;9.77;;;1.10;59.20;;;;;;4999166;28;20030;-55
2021/12/22 04:38:28;;;;;;;17.10;8.50;;;1.10;59.30;;;;;;4999584;28;20036;-54
2021/12/22 04:40:54;;;;;;;26.58;10.40;;;1.10;59.30;;;;;;4996722;28;20053;-55
2021/12/22 04:43:20;;;;;;;64.00;22.65;;;1.10;59.30;;;;;;5002363;28;20038;-55
2021/12/22 04:45:47;;;;;;;38.17;15.18;;;1.10;59.30;;;;;;5001551;28;20028;-57
2021/12/22 04:48:13;;;;;;;21.30;10.13;;;1.10;59.30;;;;;;5001127;28;20022;-57
2021/12/22 04:50:39;;;;;;;25.80;10.07;;;1.10;59.80;;;;;;5002322;28;20026;-55
2021/12/22 04:53:18;;;;;;;22.75;10.15;;;1.10;59.30;;;;;;5005245;28;20029;-54
2021/12/22 04:55:45;;;;;;;23.88;9.48;;;1.10;59.30;;;;;;5005457;28;20057;-56
2021/12/22 04:58:11;;;;;;;22.02;9.38;;;1.10;59.20;;;;;;5001570;28;20033;-55
2021/12/22 05:00:39;;;;;;;23.60;9.57;;;1.10;59.20;;;;;;5002201;28;20363;-54
2021/12/22 05:03:05;;;;;;;19.17;9.18;;;1.10;59.20;;;;;;5003619;28;20378;-56
2021/12/22 05:05:32;;;;;;;18.52;10.00;;;1.00;59.20;;;;;;5004204;28;20491;-56
2021/12/22 05:07:58;;;;;;;21.58;10.02;;;1.00;59.20;;;;;;5002934;28;20037;-57
2021/12/22 05:10:26;;;;;;;21.83;9.73;;;1.00;59.10;;;;;;5003763;28;20035;-55
2021/12/22 05:12:53;;;;;;;23.70;9.27;;;1.00;59.10;;;;;;5000544;28;20030;-53
2021/12/22 05:15:22;;;;;;;25.10;10.52;;;1.00;59.10;;;;;;5002724;28;20022;-53
2021/12/22 05:20:22;;;;;;;27.43;10.30;;;1.00;59.00;;;;;;5001380;28;20045;-57
2021/12/22 05:22:48;;;;;;;24.17;10.52;;;1.00;59.00;;;;;;5000690;28;20034;-55
2021/12/22 05:25:15;;;;;;;22.48;9.80;;;1.00;59.00;;;;;;5003169;28;20858;-54
2021/12/22 05:27:41;;;;;;;23.40;9.88;;;1.00;59.00;;;;;;5002439;28;20493;-54
2021/12/22 05:30:10;;;;;;;23.38;9.70;;;1.00;59.00;;;;;;5001081;28;20038;-54
2021/12/22 05:32:36;;;;;;;33.67;13.55;;;1.00;59.00;;;;;;4998781;28;20501;-57
2021/12/22 05:35:06;;;;;;;35.58;13.68;;;1.00;59.00;;;;;;5003489;28;20034;-55
2021/12/22 05:37:32;;;;;;;21.30;10.13;;;0.90;58.90;;;;;;5003665;28;20049;-56
2021/12/22 05:39:58;;;;;;;22.15;10.65;;;0.90;58.90;;;;;;5001466;28;20028;-54
2021/12/22 05:42:25;;;;;;;22.15;9.55;;;0.90;58.90;;;;;;4999317;28;20040;-55
2021/12/22 05:44:52;;;;;;;26.88;10.35;;;0.90;58.90;;;;;;5002596;28;20045;-56
2021/12/22 05:47:18;;;;;;;18.55;9.45;;;0.90;58.90;;;;;;4998595;28;20045;-54
2021/12/22 05:49:45;;;;;;;27.65;10.88;;;0.90;59.00;;;;;;4996404;28;20505;-56
2021/12/22 05:52:11;;;;;;;22.88;10.05;;;0.90;59.00;;;;;;5000872;28;20053;-55
2021/12/22 05:54:38;;;;;;;73.10;26.92;;;0.90;58.90;;;;;;5004170;28;20034;-55
2021/12/22 05:57:05;;;;;;;36.13;15.02;;;0.90;58.90;;;;;;5002619;28;20037;-55
2021/12/22 05:59:31;;;;;;;28.88;11.45;;;0.80;58.90;;;;;;4987084;28;20045;-56
2021/12/22 06:01:57;;;;;;;19.38;10.15;;;0.80;59.00;;;;;;4999687;28;20026;-55
2021/12/22 06:04:23;;;;;;;24.13;10.07;;;0.80;59.00;;;;;;5003745;28;20356;-56
2021/12/22 06:06:50;;;;;;;22.75;10.25;;;0.80;59.00;;;;;;5002864;28;20030;-55
2021/12/22 06:09:16;;;;;;;30.83;8.98;;;0.80;59.10;;;;;;4998830;28;20859;-55
2021/12/22 06:11:42;;;;;;;24.17;10.05;;;0.80;59.00;;;;;;5001424;28;20042;-55
2021/12/22 06:14:08;;;;;;;25.40;9.90;;;0.80;59.00;;;;;;5003155;28;20502;-56
2021/12/22 06:16:34;;;;;;;22.85;10.23;;;0.80;59.00;;;;;;5001084;28;20037;-55
2021/12/22 06:19:04;;;;;;;23.45;9.40;;;0.80;59.00;;;;;;5001386;28;20030;-57
2021/12/22 06:21:31;;;;;;;26.77;10.35;;;0.80;59.10;;;;;;5003786;28;20068;-52
2021/12/22 06:23:57;;;;;;;23.95;10.25;;;0.80;59.00;;;;;;5001443;28;20406;-55
2021/12/22 06:26:24;;;;;;;25.80;10.73;;;0.80;59.00;;;;;;5001599;28;20029;-54
2021/12/22 06:28:50;;;;;;;22.95;11.07;;;0.80;59.00;;;;;;4997930;28;20393;-56
2021/12/22 06:31:17;;;;;;;24.08;10.70;;;0.80;59.00;;;;;;4999808;28;20046;-56
2021/12/22 06:33:44;;;;;;;23.05;9.95;;;0.80;59.00;;;;;;5002361;28;20033;-55
2021/12/22 06:36:10;;;;;;;22.30;10.57;;;0.70;58.90;;;;;;5002253;28;20382;-56
2021/12/22 06:38:38;;;;;;;17.13;9.13;;;0.80;59.00;;;;;;4998988;28;20037;-56
2021/12/22 06:41:04;;;;;;;27.13;10.32;;;0.70;59.00;;;;;;4998653;28;20033;-55
2021/12/22 06:43:31;;;;;;;27.38;10.90;;;0.70;59.10;;;;;;5002822;28;20045;-55
2021/12/22 06:45:57;;;;;;;17.90;9.68;;;0.70;59.10;;;;;;5000792;28;20397;-55
2021/12/22 06:48:23;;;;;;;21.95;10.45;;;0.70;59.10;;;;;;4999835;28;20509;-55
2021/12/22 06:50:50;;;;;;;22.48;9.88;;;0.70;59.10;;;;;;5000486;28;20022;-52
2021/12/22 06:53:16;;;;;;;20.95;9.30;;;0.70;59.10;;;;;;5000470;28;20029;-56
2021/12/22 06:55:42;;;;;;;22.63;9.50;;;0.70;59.10;;;;;;5002067;28;20046;-51
2021/12/22 06:58:08;;;;;;;21.05;9.85;;;0.70;59.10;;;;;;4998044;28;20359;-55
2021/12/22 07:00:36;;;;;;;19.55;9.68;;;0.70;59.10;;;;;;4994461;28;20029;-56
2021/12/22 07:03:04;;;;;;;19.95;8.40;;;0.70;59.10;;;;;;4999770;28;20049;-56
2021/12/22 07:05:32;;;;;;;23.50;10.43;;;0.80;59.70;;;;;;5000381;28;20026;-56
2021/12/22 07:07:59;;;;;;;21.13;10.40;;;0.70;59.10;;;;;;5001280;28;20402;-57
2021/12/22 07:10:25;;;;;;;19.70;10.15;;;0.70;59.10;;;;;;5001709;28;20478;-56
2021/12/22 07:12:51;;;;;;;21.52;9.35;;;0.70;59.10;;;;;;4997964;28;20032;-55
2021/12/22 07:15:18;;;;;;;49.33;20.15;;;0.70;59.10;;;;;;4995990;28;20904;-54
2021/12/22 07:17:48;;;;;;;28.23;13.35;;;0.70;59.00;;;;;;4998447;28;20033;-55
2021/12/22 07:20:15;;;;;;;21.58;11.07;;;0.70;59.10;;;;;;4997342;28;20565;-57
2021/12/22 07:22:42;;;;;;;20.73;10.50;;;0.70;59.10;;;;;;4999152;28;20033;-55
2021/12/22 07:25:10;;;;;;;23.75;10.98;;;0.70;59.10;;;;;;4996658;28;20344;-55
2021/12/22 07:27:36;;;;;;;19.48;10.45;;;0.70;59.10;;;;;;5000336;28;20037;-54
2021/12/22 07:30:04;;;;;;;27.85;12.52;;;0.70;59.20;;;;;;4997433;28;20351;-56
2021/12/22 07:32:30;;;;;;;39.83;17.23;;;0.70;59.20;;;;;;4999634;28;20045;-56
2021/12/22 07:35:03;;;;;;;56.15;27.33;;;0.70;59.30;;;;;;5000820;28;20371;-55
2021/12/22 07:37:38;;;;;;;53.83;25.05;;;0.70;59.30;;;;;;5000411;28;20029;-56
2021/12/22 07:40:06;;;;;;;30.92;15.45;;;0.70;59.30;;;;;;4992826;28;20033;-53
2021/12/22 07:42:32;;;;;;;25.20;11.75;;;0.70;59.30;;;;;;4998072;28;20030;-54
2021/12/22 07:44:58;;;;;;;25.63;13.50;;;0.70;59.30;;;;;;4994199;28;20041;-56
2021/12/22 07:47:25;;;;;;;25.05;12.23;;;0.70;59.40;;;;;;4995726;28;20034;-56
2021/12/22 07:49:51;;;;;;;21.13;11.57;;;0.70;59.50;;;;;;4997734;28;20056;-53
2021/12/22 07:52:17;;;;;;;22.88;10.85;;;0.70;59.50;;;;;;4993361;28;20026;-57
2021/12/22 07:54:43;;;;;;;24.20;10.80;;;0.80;59.60;;;;;;4997677;28;20038;-56
2021/12/22 07:57:10;;;;;;;20.92;10.30;;;0.80;59.60;;;;;;4993330;28;20033;-54
2021/12/22 07:59:36;;;;;;;24.98;11.55;;;0.80;59.70;;;;;;4995009;28;20041;-56
2021/12/22 08:02:02;;;;;;;20.77;10.52;;;0.80;59.70;;;;;;4991896;28;20034;-54
2021/12/22 08:04:29;;;;;;;22.60;10.60;;;0.80;59.70;;;;;;4998722;28;20038;-55
2021/12/22 08:06:55;;;;;;;23.75;12.52;;;0.80;59.70;;;;;;4999357;28;20505;-55
2021/12/22 08:09:25;;;;;;;25.13;12.10;;;0.80;59.70;;;;;;4992191;28;20037;-55
2021/12/22 08:11:56;;;;;;;32.97;16.67;;;0.90;59.70;;;;;;4991608;28;20533;-54
2021/12/22 08:14:24;;;;;;;29.20;14.90;;;0.90;59.70;;;;;;4999493;28;20037;-55
2021/12/22 08:16:51;;;;;;;24.27;11.77;;;0.90;59.70;;;;;;4991308;28;20037;-55
2021/12/22 08:19:17;;;;;;;22.30;10.95;;;0.90;59.70;;;;;;4994647;28;20034;-55
2021/12/22 08:21:44;;;;;;;21.88;11.35;;;1.00;59.80;;;;;;4998193;28;20056;-55
2021/12/22 08:24:11;;;;;;;19.55;11.15;;;1.00;59.80;;;;;;4999095;28;20033;-55
2021/12/22 08:26:37;;;;;;;21.02;10.13;;;1.00;59.70;;;;;;4996574;28;20041;-55
2021/12/22 08:29:03;;;;;;;26.55;11.23;;;1.00;59.70;;;;;;4996001;28;20029;-55
2021/12/22 08:31:29;;;;;;;26.63;10.82;;;1.00;59.80;;;;;;4993972;28;20033;-55
2021/12/22 08:33:56;;;;;;;28.13;11.27;;;1.10;59.80;;;;;;5000870;28;20026;-55
2021/12/22 08:39:09;;;;;;;17.42;9.88;;;1.20;59.80;;;;;;4995912;28;20474;-56
2021/12/22 08:41:39;;;;;;;24.15;11.30;;;1.20;59.80;;;;;;4996874;28;20049;-56
2021/12/22 08:44:07;;;;;;;22.77;10.25;;;1.20;59.80;;;;;;4984173;28;20037;-54
2021/12/22 08:46:35;;;;;;;20.25;10.50;;;1.20;59.80;;;;;;4996234;28;20041;-58
2021/12/22 08:49:04;;;;;;;19.65;10.50;;;1.30;59.90;;;;;;4991999;28;20029;-55
2021/12/22 08:51:30;;;;;;;24.60;10.50;;;1.30;59.80;;;;;;4991577;28;20727;-56
2021/12/22 08:53:56;;;;;;;18.67;10.00;;;1.30;59.80;;;;;;4998527;28;20022;-53
2021/12/22 08:56:23;;;;;;;27.08;11.05;;;1.30;60.40;;;;;;4991454;28;20030;-57
2021/12/22 08:58:49;;;;;;;21.20;10.73;;;1.30;59.70;;;;;;4997146;28;20030;-57
2021/12/22 09:01:16;;;;;;;25.00;11.05;;;1.40;59.70;;;;;;4997218;28;20049;-57
2021/12/22 09:03:42;;;;;;;28.05;11.52;;;1.40;59.70;;;;;;4999779;28;20034;-53
2021/12/22 09:06:08;;;;;;;23.48;10.45;;;1.40;59.60;;;;;;4997600;28;20484;-56
2021/12/22 09:08:34;;;;;;;26.55;11.10;;;1.40;59.60;;;;;;4999257;28;20033;-58
2021/12/22 09:11:01;;;;;;;24.52;10.45;;;1.50;59.60;;;;;;4998183;28;20034;-55
2021/12/22 09:13:27;;;;;;;27.05;11.30;;;1.50;59.60;;;;;;4988820;28;20041;-55
2021/12/22 09:15:54;;;;;;;22.02;10.75;;;1.50;59.60;;;;;;4988484;28;20498;-55
2021/12/22 09:18:20;;;;;;;23.02;11.32;;;1.60;59.60;;;;;;4991384;28;20041;-56
2021/12/22 09:20:46;;;;;;;21.50;11.48;;;1.60;59.60;;;;;;5015211;28;20049;-56
2021/12/22 09:23:13;;;;;;;20.88;10.45;;;1.60;59.60;;;;;;4988540;28;20022;-55
2021/12/22 09:25:39;;;;;;;22.15;10.95;;;1.60;59.50;;;;;;5001180;28;20316;-56
2021/12/22 09:28:06;;;;;;;22.95;11.35;;;1.70;59.60;;;;;;4998231;28;20022;-54
2021/12/22 09:30:36;;;;;;;23.13;10.63;;;1.70;59.60;;;;;;5002556;28;20463;-55
2021/12/22 09:33:04;;;;;;;24.48;10.85;;;1.80;59.60;;;;;;5002470;28;20022;-52
2021/12/22 09:35:30;;;;;;;22.30;11.75;;;1.80;59.50;;;;;;5001343;28;20493;-55
2021/12/22 09:37:57;;;;;;;25.95;11.57;;;1.80;59.50;;;;;;5000746;28;20406;-56
2021/12/22 09:40:23;;;;;;;21.13;11.57;;;1.90;59.50;;;;;;5000232;28;20026;-58
2021/12/22 09:42:49;;;;;;;24.08;11.38;;;1.90;59.50;;;;;;5000151;28;20033;-55
2021/12/22 09:45:19;;;;;;;24.20;11.00;;;1.90;59.50;;;;;;5009526;28;20046;-54
2021/12/22 09:48:04;;;;;;;23.13;11.18;;;2.00;59.50;;;;;;4995812;28;20236;-55
2021/12/22 09:53:14;;;;;;;21.63;11.13;;;2.00;59.40;;;;;;4986349;28;20030;-53
2021/12/22 09:55:41;;;;;;;22.25;11.45;;;2.10;59.40;;;;;;4997223;28;20034;-55
2021/12/22 09:58:09;;;;;;;23.88;11.90;;;2.10;59.40;;;;;;4989030;28;20014;-52
2021/12/22 10:00:36;;;;;;;22.35;10.77;;;2.10;59.40;;;;;;4990017;28;20026;-56
2021/12/22 10:03:04;;;;;;;23.17;10.85;;;2.20;59.40;;;;;;4985469;28;20378;-55
2021/12/22 10:05:31;;;;;;;24.95;11.13;;;2.20;59.40;;;;;;4981731;28;20026;-55
2021/12/22 10:08:17;;;;;;;24.52;11.70;;;2.20;59.40;;;;;;4996090;28;20037;-56
2021/12/22 10:11:06;;;;;;;19.92;11.10;;;2.20;59.30;;;;;;5001230;28;20042;-53
2021/12/22 10:13:33;;;;;;;19.92;10.05;;;2.30;59.30;;;;;;4999199;28;20034;-53
2021/12/22 10:16:09;;;;;;;24.23;11.05;;;2.30;59.30;;;;;;4996875;28;20530;-55
2021/12/22 10:18:35;;;;;;;24.35;11.00;;;2.30;59.30;;;;;;5000640;28;20048;-55
2021/12/22 10:21:12;;;;;;;21.73;11.30;;;2.30;59.30;;;;;;5013488;28;20049;-53
2021/12/22 10:23:43;;;;;;;25.58;11.75;;;2.40;59.40;;;;;;4999553;28;20516;-55
2021/12/22 10:26:09;;;;;;;18.63;10.82;;;2.40;59.40;;;;;;4993684;28;20022;-55
2021/12/22 10:29:00;;;;;;;22.77;10.80;;;2.50;59.50;;;;;;4983402;28;20608;-54
2021/12/22 10:31:40;;;;;;;19.70;11.13;;;2.50;59.40;;;;;;4987471;28;21296;-53
2021/12/22 10:34:09;;;;;;;27.83;11.23;;;2.50;59.40;;;;;;4989218;28;20033;-53
2021/12/22 10:36:53;;;;;;;24.00;11.43;;;2.60;59.50;;;;;;4990270;28;20415;-56
2021/12/22 10:39:24;;;;;;;19.88;10.48;;;2.60;59.40;;;;;;4985389;28;20026;-57
2021/12/22 10:41:52;;;;;;;29.40;11.63;;;2.70;59.50;;;;;;4988266;28;20048;-56
2021/12/22 10:44:20;;;;;;;18.15;10.55;;;2.70;59.40;;;;;;4986074;28;20529;-57
2021/12/22 10:46:46;;;;;;;17.38;10.02;;;2.70;59.30;;;;;;4981249;28;20041;-56
2021/12/22 10:49:20;;;;;;;22.58;11.40;;;2.80;59.30;;;;;;4988671;28;20029;-55
2021/12/22 10:51:52;;;;;;;24.13;10.17;;;2.80;59.30;;;;;;4991878;28;20565;-56
2021/12/22 10:54:18;;;;;;;20.23;11.30;;;2.90;59.30;;;;;;4985188;28;20061;-56
2021/12/22 10:56:47;;;;;;;22.23;11.68;;;2.90;59.30;;;;;;5000135;28;20497;-55
2021/12/22 10:59:18;;;;;;;23.40;10.90;;;3.00;59.30;;;;;;4998632;28;20029;-52
2021/12/22 11:01:53;;;;;;;25.50;11.55;;;3.00;59.30;;;;;;5007820;28;20026;-53
2021/12/22 11:04:22;;;;;;;21.30;11.40;;;3.00;59.20;;;;;;5016071;28;20052;-55
2021/12/22 11:06:53;;;;;;;22.08;11.18;;;3.10;59.20;;;;;;5009788;28;20034;-55
2021/12/22 11:09:22;;;;;;;20.13;11.25;;;3.20;59.10;;;;;;4994524;28;20057;-55
2021/12/22 11:11:56;;;;;;;18.95;10.90;;;3.20;59.00;;;;;;4997908;28;20022;-54
2021/12/22 11:14:38;;;;;;;21.48;11.00;;;3.30;59.00;;;;;;5001397;28;20030;-56
2021/12/22 11:17:18;;;;;;;20.83;11.18;;;3.30;58.90;;;;;;4996610;28;20029;-54
2021/12/22 11:19:47;;;;;;;17.77;10.63;;;3.40;58.80;;;;;;4994382;28;20045;-56
2021/12/22 11:22:15;;;;;;;20.92;11.25;;;3.40;58.80;;;;;;4997662;28;20036;-56
2021/12/22 11:24:45;;;;;;;21.77;10.95;;;3.50;58.80;;;;;;4994646;28;20033;-56
2021/12/22 11:27:16;;;;;;;22.42;12.05;;;3.50;58.80;;;;;;4995285;28;20030;-56
2021/12/22 11:29:46;;;;;;;20.08;11.35;;;3.50;58.60;;;;;;4996643;28;20048;-55
2021/12/22 11:32:14;;;;;;;23.73;11.80;;;3.60;58.60;;;;;;4994168;28;20360;-54
2021/12/22 11:34:43;;;;;;;23.08;11.98;;;3.60;58.60;;;;;;4999401;28;20044;-57
2021/12/22 11:37:12;;;;;;;22.92;10.68;;;3.60;58.50;;;;;;4997659;28;20030;-56
2021/12/22 11:39:41;;;;;;;19.48;11.13;;;3.70;58.50;;;;;;4999934;28;20018;-54
2021/12/22 11:42:09;;;;;;;17.05;10.65;;;3.70;58.50;;;;;;4998622;28;20046;-56
2021/12/22 11:44:38;;;;;;;21.70;11.68;;;3.70;58.40;;;;;;5000330;28;20026;-54
2021/12/22 11:47:09;;;;;;;21.15;11.18;;;3.80;58.40;;;;;;4991413;28;20033;-55
2021/12/22 11:49:59;;;;;;;21.83;11.80;;;3.80;58.40;;;;;;4997277;28;20417;-54
2021/12/22 11:52:43;;;;;;;23.02;11.52;;;3.80;58.20;;;;;;4999586;28;20045;-55
2021/12/22 11:55:12;;;;;;;21.42;11.80;;;3.90;58.30;;;;;;4996261;28;20042;-57
2021/12/22 11:57:39;;;;;;;20.77;11.20;;;3.90;58.30;;;;;;4996024;28;20520;-55
2021/12/22 12:00:25;;;;;;;23.70;13.20;;;3.90;58.20;;;;;;4999005;28;20034;-55
2021/12/22 12:02:53;;;;;;;21.77;11.90;;;3.90;58.00;;;;;;4995943;28;20030;-55
2021/12/22 12:05:30;;;;;;;23.20;11.60;;;4.00;58.10;;;;;;5000825;28;20045;-55
2021/12/22 12:08:07;;;;;;;21.55;11.88;;;4.00;58.00;;;;;;4999520;28;20598;-57
2021/12/22 12:10:49;;;;;;;23.15;12.55;;;4.00;57.90;;;;;;5000045;28;20056;-52
2021/12/22 12:13:24;;;;;;;20.88;11.63;;;4.10;57.80;;;;;;4996588;28;20410;-56
2021/12/22 12:22:00;;;;;;;21.98;11.20;;;4.20;57.70;;;;;;4999171;28;20060;-56
2021/12/22 12:24:47;;;;;;;20.63;12.15;;;4.20;57.70;;;;;;4995699;28;20037;-54
2021/12/22 12:27:47;;;;;;;20.50;12.02;;;4.20;57.60;;;;;;4991222;28;20038;-56
2021/12/22 12:30:41;;;;;;;19.52;11.88;;;4.20;57.60;;;;;;4998075;28;20082;-58
2021/12/22 12:33:10;;;;;;;25.88;13.05;;;4.30;57.70;;;;;;4998595;28;20030;-54
2021/12/22 12:35:50;;;;;;;21.63;11.75;;;4.30;57.70;;;;;;4995748;28;20577;-58
2021/12/22 12:38:19;;;;;;;23.02;11.68;;;4.40;57.70;;;;;;4992551;28;20054;-56
2021/12/22 12:40:57;;;;;;;20.27;12.13;;;4.40;57.60;;;;;;5000341;28;20510;-58
2021/12/22 12:43:45;;;;;;;23.83;12.52;;;4.40;57.50;;;;;;4998953;28;20406;-58
2021/12/22 12:46:20;;;;;;;22.90;12.02;;;4.50;57.30;;;;;;4998937;28;20022;-56
2021/12/22 12:48:53;;;;;;;22.15;11.38;;;4.50;57.40;;;;;;4997432;28;20050;-58
2021/12/22 12:51:49;;;;;;;21.85;12.80;;;4.50;57.30;;;;;;4999506;28;20119;-56
2021/12/22 12:54:18;;;;;;;19.38;11.68;;;4.60;57.30;;;;;;4985166;28;20050;-56
2021/12/22 12:56:46;;;;;;;19.63;11.48;;;4.60;57.30;;;;;;5000392;28;20045;-57
2021/12/22 12:59:14;;;;;;;17.60;10.70;;;4.60;57.20;;;;;;5000277;28;20479;-55
2021/12/22 13:01:46;;;;;;;21.42;11.45;;;4.70;57.10;;;;;;4998672;28;20022;-55
2021/12/22 13:04:34;;;;;;;21.05;10.93;;;4.70;57.00;;;;;;5004302;28;20501;-57
2021/12/22 13:07:00;;;;;;;19.88;10.80;;;4.70;57.10;;;;;;5002917;28;20029;-56
2021/12/22 13:10:02;;;;;;;18.60;11.48;;;4.80;57.10;;;;;;5003457;28;20442;-54
2021/12/22 13:12:46;;;;;;;18.02;10.60;;;4.80;56.90;;;;;;4989629;28;20038;-56